createdAt,value
2018-06-01T05:23:51.637Z,98876.24
2018-06-01T05:26:19.016Z,98877.30
2018-06-01T05:28:46.416Z,98870.61
2018-06-01T05:31:13.801Z,98875.93
2018-06-01T05:33:41.188Z,98877.20
2018-06-01T05:36:08.581Z,98873.83
2018-06-01T05:38:35.970Z,98879.87
2018-06-01T05:41:03.353Z,98882.12
2018-06-01T05:43:30.750Z,98885.09
2018-06-01T05:45:58.144Z,98877.82
2018-06-01T05:48:25.529Z,98884.66
2018-06-01T05:50:52.920Z,98885.61
2018-06-01T05:53:20.308Z,98887.48
2018-06-01T05:55:47.696Z,98889.39
2018-06-01T05:58:15.089Z,98891.10
2018-06-01T06:00:42.478Z,98889.42
2018-06-01T06:03:09.865Z,98893.41
2018-06-01T06:05:37.245Z,98895.22
2018-06-01T06:08:04.648Z,98897.84
2018-06-01T06:10:32.024Z,98895.54
2018-06-01T06:12:59.439Z,98904.88
2018-06-01T06:15:26.825Z,98905.81
2018-06-01T06:17:54.221Z,98904.97
2018-06-01T06:20:21.605Z,98907.55
2018-06-01T06:22:49.032Z,98907.95
2018-06-01T06:25:16.385Z,98911.99
2018-06-01T06:27:43.771Z,98904.04
2018-06-01T06:30:11.160Z,98907.02
2018-06-01T06:32:38.897Z,98910.41
2018-06-01T06:35:06.283Z,98908.83
2018-06-01T06:37:33.952Z,98907.61
2018-06-01T06:40:01.477Z,98911.78
2018-06-01T06:42:28.865Z,98913.72
2018-06-01T06:44:56.260Z,98912.94
2018-06-01T06:47:23.640Z,98913.87
2018-06-01T06:49:51.949Z,98913.58
2018-06-01T06:52:19.329Z,98919.83
2018-06-01T06:54:46.725Z,98927.67
2018-06-01T06:57:14.113Z,98928.78
2018-06-01T06:59:41.501Z,98925.30
2018-06-01T07:02:08.909Z,98929.23
2018-06-01T07:04:36.301Z,98922.67
2018-06-01T07:07:03.710Z,98927.70
2018-06-01T07:09:31.102Z,98928.92
2018-06-01T07:11:58.493Z,98929.30
2018-06-01T07:14:25.883Z,98925.30
2018-06-01T07:16:53.264Z,98927.59
2018-06-01T07:19:20.653Z,98925.38
2018-06-01T07:21:48.045Z,98932.70
2018-06-01T07:24:16.356Z,98933.49
2018-06-01T07:26:43.730Z,98934.78
2018-06-01T07:35:17.267Z,98925.41
2018-06-01T07:37:56.414Z,98922.20
2018-06-01T07:43:26.231Z,98929.25
2018-06-01T07:45:53.635Z,98928.37
2018-06-01T07:57:29.204Z,98931.20
2018-06-01T07:59:56.617Z,98929.31
2018-06-01T08:02:24.062Z,98938.41
2018-06-01T08:04:51.474Z,98943.05
2018-06-01T08:07:18.860Z,98940.45
2018-06-01T08:09:46.252Z,98943.59
2018-06-01T08:12:14.578Z,98939.39
2018-06-01T08:14:42.058Z,98932.16
2018-06-01T08:23:15.375Z,98931.58
2018-06-01T08:25:42.775Z,98938.22
2018-06-01T08:28:10.173Z,98939.34
2018-06-01T08:30:37.601Z,98941.06
2018-06-01T09:03:34.709Z,98950.00
2018-06-01T09:06:02.121Z,98942.23
2018-06-01T09:08:29.511Z,98950.18
2018-06-01T09:10:56.910Z,98951.94
2018-06-01T09:13:24.314Z,98946.80
2018-06-01T09:15:51.698Z,98951.00
2018-06-01T09:18:19.093Z,98953.07
2018-06-01T09:20:46.485Z,98953.66
2018-06-01T09:23:13.885Z,98955.52
2018-06-01T09:25:41.276Z,98965.09
2018-06-01T09:28:08.703Z,98960.21
2018-06-01T09:30:36.109Z,98966.77
2018-06-01T09:33:03.546Z,98957.30
2018-06-01T09:35:30.985Z,98957.47
2018-06-01T09:37:58.377Z,98955.13
2018-06-01T09:40:25.785Z,98965.63
2018-06-01T09:42:53.189Z,98960.20
2018-06-01T09:45:20.585Z,98969.83
2018-06-01T09:47:47.991Z,98970.81
2018-06-01T09:50:15.380Z,98966.92
2018-06-01T09:52:42.789Z,98963.17
2018-06-01T09:55:10.174Z,98957.61
2018-06-01T09:57:37.731Z,98960.83
2018-06-01T10:00:05.109Z,98960.62
2018-06-01T10:02:32.514Z,98956.58
2018-06-01T10:05:00.376Z,98956.58
2018-06-01T10:07:27.784Z,98955.48
2018-06-01T10:10:00.667Z,98962.34
2018-06-01T10:12:28.060Z,98951.92
2018-06-01T10:14:55.532Z,98948.74
2018-06-01T10:17:22.928Z,98950.86
2018-06-01T10:19:50.413Z,98957.48
2018-06-01T10:22:17.863Z,98958.05
2018-06-01T10:24:45.260Z,98952.13
2018-06-01T10:27:12.679Z,98948.77
2018-06-01T10:29:40.140Z,98953.31
2018-06-01T10:32:07.560Z,98955.24
2018-06-01T10:34:35.711Z,98955.13
2018-06-01T10:37:03.099Z,98949.42
2018-06-01T10:39:31.422Z,98963.01
2018-06-01T10:41:58.789Z,98950.01
2018-06-01T10:44:26.192Z,98949.45
2018-06-01T10:46:53.783Z,98942.73
2018-06-01T10:49:21.181Z,98945.09
2018-06-01T10:51:48.581Z,98936.97
2018-06-01T10:54:15.978Z,98940.38
2018-06-01T10:56:43.364Z,98942.57
2018-06-01T10:59:10.767Z,98936.65
2018-06-01T11:01:38.225Z,98934.58
2018-06-01T11:04:05.563Z,98932.63
2018-06-01T11:06:32.953Z,98934.40
2018-06-01T11:09:00.361Z,98933.10
2018-06-01T11:11:27.739Z,98930.41
2018-06-01T11:13:55.149Z,98924.29
2018-06-01T11:16:22.585Z,98922.05
2018-06-01T11:18:49.989Z,98918.97
2018-06-01T11:21:18.181Z,98923.11
2018-06-01T11:23:45.570Z,98923.96
2018-06-01T11:26:12.961Z,98918.77
2018-06-01T11:28:40.421Z,98920.02
2018-06-01T11:31:07.849Z,98912.66
2018-06-01T11:33:35.248Z,98917.29
2018-06-01T11:36:03.025Z,98910.48
2018-06-01T11:38:30.429Z,98909.89
2018-06-01T11:40:57.820Z,98902.89
2018-06-01T11:43:25.200Z,98895.96
2018-06-01T11:45:52.600Z,98896.44
2018-06-01T11:48:19.981Z,98895.73
2018-06-01T11:50:47.381Z,98894.19
2018-06-01T11:53:14.772Z,98892.59
2018-06-01T11:55:42.173Z,98889.38
2018-06-01T11:58:09.560Z,98891.45
2018-06-01T12:00:36.963Z,98881.27
2018-06-01T12:03:04.399Z,98879.22
2018-06-01T12:05:31.962Z,98881.59
2018-06-01T12:07:59.351Z,98875.41
2018-06-01T12:10:26.757Z,98869.02
2018-06-01T12:12:54.150Z,98872.16
2018-06-01T12:15:21.545Z,98870.33
2018-06-01T12:17:48.977Z,98869.11
2018-06-01T12:20:16.333Z,98868.55
2018-06-01T12:22:43.729Z,98870.05
2018-06-01T12:25:11.133Z,98870.97
2018-06-01T12:27:38.529Z,98869.67
2018-06-01T12:30:05.936Z,98867.02
2018-06-01T12:32:33.325Z,98862.72
2018-06-01T12:35:00.780Z,98860.88
2018-06-01T12:37:28.190Z,98858.39
2018-06-01T12:39:55.552Z,98850.73
2018-06-01T12:42:22.984Z,98852.50
2018-06-01T12:44:50.359Z,98851.00
2018-06-01T12:47:17.761Z,98840.41
2018-06-01T12:49:45.173Z,98853.05
2018-06-01T12:52:12.571Z,98862.05
2018-06-01T12:54:39.952Z,98856.58
2018-06-01T12:57:07.361Z,98851.61
2018-06-01T12:59:35.673Z,98847.44
2018-06-01T13:02:03.092Z,98851.31
2018-06-01T13:04:30.479Z,98853.51
2018-06-01T13:06:57.869Z,98848.56
2018-06-01T13:09:25.262Z,98849.05
2018-06-01T13:11:52.673Z,98845.53
2018-06-01T13:14:20.103Z,98853.53
2018-06-01T13:16:47.467Z,98850.64
2018-06-01T13:19:14.841Z,98842.02
2018-06-01T13:21:42.244Z,98843.93
2018-06-01T13:24:09.643Z,98844.29
2018-06-01T13:26:37.041Z,98842.23
2018-06-01T13:29:04.429Z,98840.70
2018-06-01T13:31:31.816Z,98839.70
2018-06-01T13:33:59.464Z,98845.27
2018-06-01T13:36:26.928Z,98834.70
2018-06-01T13:38:54.313Z,98829.19
2018-06-01T13:41:21.714Z,98834.56
2018-06-01T13:43:49.104Z,98829.75
2018-06-01T13:46:16.498Z,98832.78
2018-06-01T13:48:43.899Z,98825.94
2018-06-01T13:51:11.293Z,98829.77
2018-06-01T13:53:38.689Z,98832.26
2018-06-01T13:56:06.073Z,98830.62
2018-06-01T13:58:33.472Z,98834.83
2018-06-01T14:01:00.877Z,98834.80
2018-06-01T14:03:28.265Z,98834.28
2018-06-01T14:05:56.368Z,98822.89
2018-06-01T14:08:23.768Z,98831.45
2018-06-01T14:10:51.149Z,98823.73
2018-06-01T14:13:18.597Z,98827.55
2018-06-01T14:15:45.993Z,98817.97
2018-06-01T14:18:13.395Z,98808.48
2018-06-01T14:20:40.781Z,98811.17
2018-06-01T14:23:08.542Z,98811.21
2018-06-01T14:25:35.924Z,98812.45
2018-06-01T14:28:04.106Z,98803.30
2018-06-01T14:30:31.488Z,98802.08
2018-06-01T14:32:58.893Z,98806.06
2018-06-01T14:35:26.406Z,98803.78
2018-06-01T14:37:53.937Z,98800.39
2018-06-01T14:40:21.336Z,98799.13
2018-06-01T14:42:48.782Z,98800.48
2018-06-01T14:45:16.176Z,98800.66
2018-06-01T14:47:43.561Z,98798.63
2018-06-01T14:50:10.973Z,98791.17
2018-06-01T14:52:38.360Z,98793.55
2018-06-01T14:55:05.764Z,98792.39
2018-06-01T14:57:33.153Z,98790.90
2018-06-01T15:00:00.553Z,98794.05
2018-06-01T15:02:27.948Z,98787.53
2018-06-01T15:04:55.349Z,98795.27
2018-06-01T15:07:22.945Z,98796.80
2018-06-01T15:09:50.368Z,98797.13
2018-06-01T15:12:17.776Z,98804.48
2018-06-01T15:14:45.238Z,98794.71
2018-06-01T15:17:12.758Z,98798.20
2018-06-01T15:19:40.374Z,98797.98
2018-06-01T15:22:07.765Z,98803.16
2018-06-01T15:24:35.168Z,98794.34
2018-06-01T15:27:02.556Z,98798.55
2018-06-01T15:29:29.958Z,98799.20
2018-06-01T15:31:57.345Z,98801.04
2018-06-01T15:34:24.742Z,98801.52
2018-06-01T15:36:52.135Z,98795.94
2018-06-01T15:39:19.525Z,98798.02
2018-06-01T15:41:46.909Z,98799.50
2018-06-01T15:44:14.304Z,98797.10
2018-06-01T15:46:41.701Z,98795.03
2018-06-01T15:49:09.119Z,98795.45
2018-06-01T15:51:36.541Z,98801.83
2018-06-01T15:54:03.925Z,98804.73
2018-06-01T15:56:31.437Z,98804.48
2018-06-01T15:58:58.829Z,98811.77
2018-06-01T16:01:26.224Z,98811.95
2018-06-01T16:03:53.630Z,98811.20
2018-06-01T16:06:21.027Z,98805.71
2018-06-01T16:08:49.357Z,98807.69
2018-06-01T16:11:16.789Z,98811.70
2018-06-01T16:13:44.184Z,98819.14
2018-06-01T16:16:12.325Z,98817.92
2018-06-01T16:18:39.712Z,98817.17
2018-06-01T16:21:07.111Z,98820.86
2018-06-01T16:23:34.501Z,98821.38
2018-06-01T16:26:01.906Z,98828.72
2018-06-01T16:28:29.330Z,98828.88
2018-06-01T16:30:56.725Z,98836.80
2018-06-01T16:33:24.169Z,98825.69
2018-06-01T16:35:51.566Z,98833.73
2018-06-01T16:38:19.055Z,98829.42
2018-06-01T16:40:46.973Z,98833.11
2018-06-01T16:43:14.349Z,98832.73
2018-06-01T16:45:41.745Z,98828.40
2018-06-01T16:48:09.151Z,98815.75
2018-06-01T16:50:36.553Z,98832.88
2018-06-01T16:53:03.949Z,98836.16
2018-06-01T16:55:31.340Z,98831.05
2018-06-01T16:57:58.729Z,98835.30
2018-06-01T17:00:26.128Z,98830.52
2018-06-01T17:02:53.511Z,98835.59
2018-06-01T17:05:20.908Z,98839.45
2018-06-01T17:07:48.309Z,98840.38
2018-06-01T17:10:15.696Z,98839.50
2018-06-01T17:12:43.101Z,98840.57
2018-06-01T17:15:10.517Z,98849.64
2018-06-01T17:17:37.917Z,98850.14
2018-06-01T17:20:05.301Z,98852.94
2018-06-01T17:22:33.496Z,98855.88
2018-06-01T17:25:00.865Z,98863.09
2018-06-01T17:27:28.267Z,98856.25
2018-06-01T17:29:55.657Z,98861.17
2018-06-01T17:32:24.661Z,98863.43
2018-06-01T17:34:52.061Z,98869.94
2018-06-01T17:37:19.460Z,98868.52
2018-06-01T17:39:48.239Z,98877.69
2018-06-01T17:42:15.649Z,98866.78
2018-06-01T17:44:43.041Z,98874.12
2018-06-01T17:47:10.523Z,98871.52
2018-06-01T17:49:37.939Z,98875.52
2018-06-01T17:52:05.339Z,98877.39
2018-06-01T17:57:19.015Z,98875.58
2018-06-01T17:59:46.409Z,98878.14
2018-06-01T18:02:14.416Z,98887.41
2018-06-01T18:07:44.099Z,98890.84
2018-06-01T18:13:14.643Z,98881.91
2018-06-01T19:01:27.495Z,98910.33
2018-06-01T19:03:54.962Z,98922.42
2018-06-01T19:06:22.431Z,98926.01
2018-06-01T19:08:49.846Z,98934.53
2018-06-01T19:11:17.313Z,98930.47
2018-06-01T19:13:44.708Z,98938.72
2018-06-01T19:16:12.124Z,98944.75
2018-06-01T19:18:39.516Z,98950.73
2018-06-01T19:21:06.901Z,98951.49
2018-06-01T19:23:34.304Z,98952.78
2018-06-01T19:26:05.812Z,98956.62
2018-06-01T19:49:59.576Z,98980.63
2018-06-01T19:55:30.190Z,98992.28
2018-06-01T20:43:42.591Z,99007.09
2018-06-01T20:46:13.135Z,99004.61
2018-06-01T20:48:40.563Z,99001.66
